首页
METAR-TAF:

METAR-TAF

机场 :

Cape Girardeau, 密蘇里州, 美国

纬度: 37-13-32N, 经度: 089-34-42W, 海拔: 104米

当前天气观测

该预报发布于48分钟前的22:53 UTC
风速6节,风向西
温度 14°C
湿度 88%
气压 1006 hPa
能見度: 11.3公里
多云层高于4600英尺
阴天层高于5500英尺

METAR: KCGI 092253Z 27006KT 7SM BKN046 OVC055 14/12 A2971 RMK AO2 SLP059 T01390122

时间: 17:41 (23:41 UTC)

预报

该预报发布于21分钟前的23:20 UTC
预报有效从10日的 00点(UTC)到 10日的 24点(UTC)
风速11节,风向西转西北
能見度: 10公里
散云层高于1400英尺
阴天层高于4000英尺
附近有阵雨
从 10日的 0200点(UTC)
风速14节,风向西北
能見度: 10公里
散云层高于1600英尺
阴天层高于3000英尺
附近有阵雨
从 10日的 0300点(UTC)
风速15节,风向西北
能見度: 10公里
散云层高于1800英尺
阴天层高于9000英尺
从 10日的 1100点(UTC)
风速11节,风向北转西北
能見度: 10公里
散云层高于2900英尺
阴天层高于12000英尺
从 10日的 1600点(UTC)
风速6节,风向北转西北
能見度: 10公里
散云层高于4000英尺
阴天层高于15000英尺
从 10日的 2300点(UTC)
风速3节,风向多变
能見度: 10公里
散云层高于4000英尺
多云层高于18000英尺

TAF: KCGI 092320Z 1000/1024 29011KT P6SM VCSH SCT014 OVC040 FM100200 31014KT P6SM VCSH SCT016 OVC030 FM100300 32015KT P6SM SCT018 OVC090 FM101100 34011KT P6SM SCT029 OVC120 FM101600 34006KT P6SM SCT040 OVC150 FM102300 VRB03KT P6SM SCT040 BKN180

超过4000个机场的气象观测和天气预报(METAR&TAF报告)。

可查询的气象台以黄色和红色小点在地图上表示。

将鼠标移到小点上方,可查看气象台名称。

然后点击查看天气观测和预报。

如需切换地图:点击带黑十字的绿色按钮放大地图;点击带横线的绿色按钮缩小地图;或者点击绿色箭头查看邻近地区的地图。


METAR-TAF: